sensor_id;sensor_type;location;lat;lon;timestamp;P1;durP1;ratioP1;P2;durP2;ratioP2
73557;SDS011;61829;53.286;10.434;2022-11-20T00:02:26;9.10;;;4.40;;
73557;SDS011;61829;53.286;10.434;2022-11-20T00:04:52;10.90;;;4.65;;
73557;SDS011;61829;53.286;10.434;2022-11-20T00:07:18;10.85;;;4.65;;
73557;SDS011;61829;53.286;10.434;2022-11-20T00:09:44;10.30;;;5.00;;
73557;SDS011;61829;53.286;10.434;2022-11-20T00:12:11;13.07;;;5.00;;
73557;SDS011;61829;53.286;10.434;2022-11-20T00:14:37;8.77;;;4.80;;
73557;SDS011;61829;53.286;10.434;2022-11-20T00:17:04;6.78;;;4.00;;
73557;SDS011;61829;53.286;10.434;2022-11-20T00:19:30;8.60;;;4.93;;
73557;SDS011;61829;53.286;10.434;2022-11-20T00:21:57;8.52;;;4.53;;
73557;SDS011;61829;53.286;10.434;2022-11-20T00:24:23;9.52;;;5.22;;
73557;SDS011;61829;53.286;10.434;2022-11-20T00:26:50;8.82;;;4.93;;
73557;SDS011;61829;53.286;10.434;2022-11-20T00:29:16;7.22;;;4.70;;
73557;SDS011;61829;53.286;10.434;2022-11-20T00:31:42;9.50;;;5.32;;
73557;SDS011;61829;53.286;10.434;2022-11-20T00:34:09;10.88;;;4.55;;
73557;SDS011;61829;53.286;10.434;2022-11-20T00:36:36;7.35;;;4.88;;
73557;SDS011;61829;53.286;10.434;2022-11-20T00:39:02;8.90;;;4.75;;
73557;SDS011;61829;53.286;10.434;2022-11-20T00:41:29;8.07;;;4.65;;
73557;SDS011;61829;53.286;10.434;2022-11-20T00:43:55;11.35;;;5.47;;
73557;SDS011;61829;53.286;10.434;2022-11-20T00:46:23;9.13;;;5.00;;
73557;SDS011;61829;53.286;10.434;2022-11-20T00:48:51;8.82;;;4.82;;
73557;SDS011;61829;53.286;10.434;2022-11-20T00:51:19;7.43;;;4.38;;
73557;SDS011;61829;53.286;10.434;2022-11-20T00:53:47;9.18;;;5.32;;
73557;SDS011;61829;53.286;10.434;2022-11-20T00:56:15;9.65;;;5.60;;
73557;SDS011;61829;53.286;10.434;2022-11-20T00:58:43;9.10;;;5.55;;
73557;SDS011;61829;53.286;10.434;2022-11-20T01:01:12;8.80;;;4.70;;
73557;SDS011;61829;53.286;10.434;2022-11-20T01:03:41;8.00;;;4.60;;
73557;SDS011;61829;53.286;10.434;2022-11-20T01:06:12;9.55;;;5.10;;
73557;SDS011;61829;53.286;10.434;2022-11-20T01:08:49;9.00;;;5.13;;
73557;SDS011;61829;53.286;10.434;2022-11-20T01:11:17;7.93;;;4.38;;
73557;SDS011;61829;53.286;10.434;2022-11-20T01:13:47;9.02;;;4.97;;
73557;SDS011;61829;53.286;10.434;2022-11-20T01:16:15;9.10;;;5.43;;
73557;SDS011;61829;53.286;10.434;2022-11-20T01:18:45;8.05;;;5.15;;
73557;SDS011;61829;53.286;10.434;2022-11-20T01:21:15;9.00;;;5.47;;
73557;SDS011;61829;53.286;10.434;2022-11-20T01:23:43;11.45;;;5.63;;
73557;SDS011;61829;53.286;10.434;2022-11-20T01:26:14;10.23;;;5.35;;
73557;SDS011;61829;53.286;10.434;2022-11-20T01:28:42;9.57;;;5.70;;
73557;SDS011;61829;53.286;10.434;2022-11-20T01:36:09;8.38;;;4.90;;
73557;SDS011;61829;53.286;10.434;2022-11-20T01:38:37;8.38;;;4.90;;
73557;SDS011;61829;53.286;10.434;2022-11-20T01:41:04;8.63;;;4.90;;
73557;SDS011;61829;53.286;10.434;2022-11-20T01:43:32;9.70;;;5.72;;
73557;SDS011;61829;53.286;10.434;2022-11-20T01:46:00;7.55;;;4.78;;
73557;SDS011;61829;53.286;10.434;2022-11-20T01:48:53;9.18;;;4.80;;
73557;SDS011;61829;53.286;10.434;2022-11-20T01:54:00;7.57;;;4.50;;
73557;SDS011;61829;53.286;10.434;2022-11-20T01:56:32;7.30;;;4.65;;
73557;SDS011;61829;53.286;10.434;2022-11-20T01:59:02;8.10;;;4.55;;
73557;SDS011;61829;53.286;10.434;2022-11-20T02:04:50;7.78;;;4.40;;
73557;SDS011;61829;53.286;10.434;2022-11-20T02:07:20;7.28;;;4.45;;
73557;SDS011;61829;53.286;10.434;2022-11-20T02:09:48;9.27;;;4.50;;
73557;SDS011;61829;53.286;10.434;2022-11-20T02:12:14;9.15;;;4.75;;
73557;SDS011;61829;53.286;10.434;2022-11-20T02:15:00;8.98;;;4.53;;
73557;SDS011;61829;53.286;10.434;2022-11-20T02:17:27;8.30;;;4.35;;
73557;SDS011;61829;53.286;10.434;2022-11-20T02:19:53;7.70;;;4.70;;
73557;SDS011;61829;53.286;10.434;2022-11-20T02:22:30;6.43;;;3.90;;
73557;SDS011;61829;53.286;10.434;2022-11-20T02:25:03;7.55;;;4.35;;
73557;SDS011;61829;53.286;10.434;2022-11-20T02:27:32;7.32;;;4.45;;
73557;SDS011;61829;53.286;10.434;2022-11-20T02:30:03;8.93;;;5.10;;
73557;SDS011;61829;53.286;10.434;2022-11-20T02:32:34;7.75;;;4.43;;
73557;SDS011;61829;53.286;10.434;2022-11-20T02:37:47;7.20;;;4.60;;
73557;SDS011;61829;53.286;10.434;2022-11-20T02:40:16;8.98;;;4.30;;
73557;SDS011;61829;53.286;10.434;2022-11-20T02:42:42;8.52;;;4.50;;
73557;SDS011;61829;53.286;10.434;2022-11-20T02:45:08;8.65;;;4.82;;
73557;SDS011;61829;53.286;10.434;2022-11-20T02:47:35;8.40;;;5.07;;
73557;SDS011;61829;53.286;10.434;2022-11-20T02:50:01;7.97;;;4.82;;
73557;SDS011;61829;53.286;10.434;2022-11-20T02:52:27;7.05;;;4.50;;
73557;SDS011;61829;53.286;10.434;2022-11-20T02:54:54;7.28;;;4.40;;
73557;SDS011;61829;53.286;10.434;2022-11-20T02:57:20;7.28;;;4.65;;
73557;SDS011;61829;53.286;10.434;2022-11-20T02:59:46;6.85;;;3.83;;
73557;SDS011;61829;53.286;10.434;2022-11-20T03:02:12;8.93;;;4.70;;
73557;SDS011;61829;53.286;10.434;2022-11-20T03:04:38;8.20;;;4.47;;
73557;SDS011;61829;53.286;10.434;2022-11-20T03:07:04;10.77;;;4.90;;
73557;SDS011;61829;53.286;10.434;2022-11-20T03:09:30;7.85;;;4.63;;
73557;SDS011;61829;53.286;10.434;2022-11-20T03:11:56;9.77;;;4.82;;
73557;SDS011;61829;53.286;10.434;2022-11-20T03:17:48;6.82;;;4.32;;
73557;SDS011;61829;53.286;10.434;2022-11-20T03:20:14;9.07;;;5.07;;
73557;SDS011;61829;53.286;10.434;2022-11-20T03:22:40;7.80;;;5.15;;
73557;SDS011;61829;53.286;10.434;2022-11-20T03:25:06;9.20;;;4.72;;
73557;SDS011;61829;53.286;10.434;2022-11-20T03:27:33;8.23;;;4.82;;
73557;SDS011;61829;53.286;10.434;2022-11-20T03:30:00;9.77;;;6.03;;
73557;SDS011;61829;53.286;10.434;2022-11-20T03:32:26;8.18;;;4.93;;
73557;SDS011;61829;53.286;10.434;2022-11-20T03:34:52;7.68;;;4.97;;
73557;SDS011;61829;53.286;10.434;2022-11-20T03:37:37;9.90;;;5.53;;
73557;SDS011;61829;53.286;10.434;2022-11-20T03:40:03;8.50;;;4.43;;
73557;SDS011;61829;53.286;10.434;2022-11-20T03:42:29;7.85;;;5.25;;
73557;SDS011;61829;53.286;10.434;2022-11-20T03:45:10;10.35;;;5.32;;
73557;SDS011;61829;53.286;10.434;2022-11-20T03:47:39;10.52;;;5.32;;
73557;SDS011;61829;53.286;10.434;2022-11-20T03:50:05;9.18;;;4.90;;
73557;SDS011;61829;53.286;10.434;2022-11-20T03:52:32;7.63;;;4.88;;
73557;SDS011;61829;53.286;10.434;2022-11-20T03:54:57;9.52;;;5.25;;
73557;SDS011;61829;53.286;10.434;2022-11-20T03:57:24;9.77;;;5.28;;
73557;SDS011;61829;53.286;10.434;2022-11-20T03:59:50;8.13;;;4.85;;
73557;SDS011;61829;53.286;10.434;2022-11-20T04:02:16;9.27;;;5.38;;
73557;SDS011;61829;53.286;10.434;2022-11-20T04:04:42;9.23;;;5.63;;
73557;SDS011;61829;53.286;10.434;2022-11-20T04:07:08;8.80;;;5.13;;
73557;SDS011;61829;53.286;10.434;2022-11-20T04:09:34;9.27;;;5.05;;
73557;SDS011;61829;53.286;10.434;2022-11-20T04:12:00;8.45;;;5.38;;
73557;SDS011;61829;53.286;10.434;2022-11-20T04:14:26;7.57;;;4.78;;
73557;SDS011;61829;53.286;10.434;2022-11-20T04:16:52;10.60;;;4.95;;
73557;SDS011;61829;53.286;10.434;2022-11-20T04:19:18;8.55;;;5.07;;
73557;SDS011;61829;53.286;10.434;2022-11-20T04:21:44;9.45;;;5.30;;
73557;SDS011;61829;53.286;10.434;2022-11-20T04:24:10;9.13;;;5.00;;
73557;SDS011;61829;53.286;10.434;2022-11-20T04:26:37;9.07;;;5.13;;
73557;SDS011;61829;53.286;10.434;2022-11-20T04:29:03;8.05;;;5.10;;
73557;SDS011;61829;53.286;10.434;2022-11-20T04:31:30;8.43;;;5.03;;
73557;SDS011;61829;53.286;10.434;2022-11-20T04:33:59;9.32;;;4.35;;
73557;SDS011;61829;53.286;10.434;2022-11-20T04:36:26;8.77;;;4.57;;
73557;SDS011;61829;53.286;10.434;2022-11-20T04:38:54;9.13;;;5.47;;
73557;SDS011;61829;53.286;10.434;2022-11-20T04:41:26;8.38;;;4.65;;
73557;SDS011;61829;53.286;10.434;2022-11-20T04:43:59;8.32;;;4.93;;
73557;SDS011;61829;53.286;10.434;2022-11-20T04:46:29;9.15;;;4.63;;
73557;SDS011;61829;53.286;10.434;2022-11-20T04:48:57;7.97;;;4.68;;
73557;SDS011;61829;53.286;10.434;2022-11-20T04:51:25;9.00;;;4.43;;
73557;SDS011;61829;53.286;10.434;2022-11-20T04:53:51;9.02;;;4.97;;
73557;SDS011;61829;53.286;10.434;2022-11-20T04:56:18;8.82;;;4.75;;
73557;SDS011;61829;53.286;10.434;2022-11-20T04:58:44;8.25;;;4.65;;
73557;SDS011;61829;53.286;10.434;2022-11-20T05:01:20;8.10;;;4.47;;
73557;SDS011;61829;53.286;10.434;2022-11-20T05:03:48;8.45;;;4.53;;
73557;SDS011;61829;53.286;10.434;2022-11-20T05:06:15;8.13;;;4.45;;
73557;SDS011;61829;53.286;10.434;2022-11-20T05:08:42;7.82;;;4.35;;
73557;SDS011;61829;53.286;10.434;2022-11-20T05:11:09;8.93;;;4.57;;
73557;SDS011;61829;53.286;10.434;2022-11-20T05:13:39;11.07;;;4.72;;
73557;SDS011;61829;53.286;10.434;2022-11-20T05:16:10;6.30;;;3.92;;
73557;SDS011;61829;53.286;10.434;2022-11-20T05:18:43;7.13;;;4.28;;
73557;SDS011;61829;53.286;10.434;2022-11-20T05:21:10;7.97;;;4.60;;
73557;SDS011;61829;53.286;10.434;2022-11-20T05:23:38;7.95;;;4.78;;
73557;SDS011;61829;53.286;10.434;2022-11-20T05:26:05;6.72;;;4.47;;
73557;SDS011;61829;53.286;10.434;2022-11-20T05:28:32;9.25;;;5.20;;
73557;SDS011;61829;53.286;10.434;2022-11-20T05:33:32;9.35;;;5.28;;
73557;SDS011;61829;53.286;10.434;2022-11-20T05:35:59;8.45;;;4.72;;
73557;SDS011;61829;53.286;10.434;2022-11-20T05:38:24;9.52;;;5.63;;
73557;SDS011;61829;53.286;10.434;2022-11-20T05:40:51;7.97;;;4.72;;
73557;SDS011;61829;53.286;10.434;2022-11-20T05:43:17;9.55;;;5.63;;
73557;SDS011;61829;53.286;10.434;2022-11-20T05:45:50;8.02;;;4.95;;
73557;SDS011;61829;53.286;10.434;2022-11-20T05:48:17;7.47;;;4.63;;
73557;SDS011;61829;53.286;10.434;2022-11-20T05:50:44;9.15;;;4.78;;
73557;SDS011;61829;53.286;10.434;2022-11-20T05:53:10;9.40;;;5.30;;
73557;SDS011;61829;53.286;10.434;2022-11-20T05:55:36;9.02;;;5.30;;
73557;SDS011;61829;53.286;10.434;2022-11-20T05:58:02;10.35;;;5.63;;
73557;SDS011;61829;53.286;10.434;2022-11-20T06:00:28;8.27;;;4.63;;
73557;SDS011;61829;53.286;10.434;2022-11-20T06:02:54;12.82;;;5.90;;
73557;SDS011;61829;53.286;10.434;2022-11-20T06:05:20;11.77;;;5.20;;
73557;SDS011;61829;53.286;10.434;2022-11-20T06:07:46;10.02;;;5.80;;
73557;SDS011;61829;53.286;10.434;2022-11-20T06:10:12;10.85;;;5.97;;
73557;SDS011;61829;53.286;10.434;2022-11-20T06:12:38;9.52;;;5.60;;
73557;SDS011;61829;53.286;10.434;2022-11-20T06:15:05;12.35;;;6.35;;
73557;SDS011;61829;53.286;10.434;2022-11-20T06:17:31;10.07;;;6.35;;
73557;SDS011;61829;53.286;10.434;2022-11-20T06:19:57;10.85;;;6.15;;
73557;SDS011;61829;53.286;10.434;2022-11-20T06:22:24;9.73;;;5.95;;
73557;SDS011;61829;53.286;10.434;2022-11-20T06:24:50;10.10;;;6.07;;
73557;SDS011;61829;53.286;10.434;2022-11-20T06:27:16;11.05;;;6.00;;
73557;SDS011;61829;53.286;10.434;2022-11-20T06:29:42;9.48;;;5.75;;
73557;SDS011;61829;53.286;10.434;2022-11-20T06:32:08;10.60;;;6.72;;
73557;SDS011;61829;53.286;10.434;2022-11-20T06:34:34;11.45;;;6.05;;
73557;SDS011;61829;53.286;10.434;2022-11-20T06:37:00;11.77;;;6.28;;
73557;SDS011;61829;53.286;10.434;2022-11-20T06:39:26;12.85;;;6.50;;
73557;SDS011;61829;53.286;10.434;2022-11-20T06:41:53;12.07;;;6.85;;
73557;SDS011;61829;53.286;10.434;2022-11-20T06:44:19;10.52;;;6.60;;
73557;SDS011;61829;53.286;10.434;2022-11-20T06:46:48;13.10;;;6.45;;
73557;SDS011;61829;53.286;10.434;2022-11-20T06:49:17;11.48;;;6.82;;
73557;SDS011;61829;53.286;10.434;2022-11-20T06:51:43;10.32;;;6.35;;
73557;SDS011;61829;53.286;10.434;2022-11-20T06:54:09;13.90;;;7.03;;
73557;SDS011;61829;53.286;10.434;2022-11-20T06:56:35;13.57;;;7.28;;
73557;SDS011;61829;53.286;10.434;2022-11-20T06:59:05;20.60;;;9.20;;
73557;SDS011;61829;53.286;10.434;2022-11-20T07:01:34;25.63;;;12.75;;
73557;SDS011;61829;53.286;10.434;2022-11-20T07:04:01;15.48;;;7.97;;
73557;SDS011;61829;53.286;10.434;2022-11-20T07:06:27;13.68;;;7.57;;
73557;SDS011;61829;53.286;10.434;2022-11-20T07:08:53;13.30;;;6.80;;
73557;SDS011;61829;53.286;10.434;2022-11-20T07:11:19;11.43;;;6.95;;
73557;SDS011;61829;53.286;10.434;2022-11-20T07:13:46;11.65;;;6.80;;
73557;SDS011;61829;53.286;10.434;2022-11-20T07:16:11;13.68;;;7.57;;
73557;SDS011;61829;53.286;10.434;2022-11-20T07:18:38;12.73;;;7.40;;
73557;SDS011;61829;53.286;10.434;2022-11-20T07:21:05;13.80;;;7.20;;
73557;SDS011;61829;53.286;10.434;2022-11-20T07:23:33;13.32;;;6.78;;
73557;SDS011;61829;53.286;10.434;2022-11-20T07:26:02;14.65;;;7.80;;
73557;SDS011;61829;53.286;10.434;2022-11-20T07:28:30;15.25;;;7.20;;
73557;SDS011;61829;53.286;10.434;2022-11-20T07:30:55;12.55;;;5.88;;
73557;SDS011;61829;53.286;10.434;2022-11-20T07:33:22;13.07;;;7.45;;
73557;SDS011;61829;53.286;10.434;2022-11-20T07:35:47;13.50;;;7.40;;
73557;SDS011;61829;53.286;10.434;2022-11-20T07:38:14;10.75;;;6.68;;
73557;SDS011;61829;53.286;10.434;2022-11-20T07:40:40;15.13;;;8.05;;
73557;SDS011;61829;53.286;10.434;2022-11-20T07:43:06;14.73;;;7.70;;
73557;SDS011;61829;53.286;10.434;2022-11-20T07:45:32;15.10;;;8.35;;
73557;SDS011;61829;53.286;10.434;2022-11-20T07:47:58;14.60;;;7.70;;
73557;SDS011;61829;53.286;10.434;2022-11-20T07:50:24;12.52;;;7.50;;
73557;SDS011;61829;53.286;10.434;2022-11-20T07:52:51;14.95;;;7.10;;
73557;SDS011;61829;53.286;10.434;2022-11-20T07:55:17;13.52;;;7.80;;
73557;SDS011;61829;53.286;10.434;2022-11-20T07:57:44;14.60;;;7.40;;
73557;SDS011;61829;53.286;10.434;2022-11-20T08:00:10;12.95;;;7.22;;
73557;SDS011;61829;53.286;10.434;2022-11-20T08:02:40;12.82;;;7.30;;
73557;SDS011;61829;53.286;10.434;2022-11-20T08:05:07;13.02;;;7.57;;
73557;SDS011;61829;53.286;10.434;2022-11-20T08:07:35;13.45;;;7.13;;
73557;SDS011;61829;53.286;10.434;2022-11-20T08:10:05;11.93;;;7.25;;
73557;SDS011;61829;53.286;10.434;2022-11-20T08:12:33;12.95;;;7.57;;
73557;SDS011;61829;53.286;10.434;2022-11-20T08:15:18;13.63;;;6.85;;
73557;SDS011;61829;53.286;10.434;2022-11-20T08:17:44;11.80;;;6.95;;
73557;SDS011;61829;53.286;10.434;2022-11-20T08:20:13;13.57;;;7.15;;
73557;SDS011;61829;53.286;10.434;2022-11-20T08:22:39;12.60;;;7.10;;
73557;SDS011;61829;53.286;10.434;2022-11-20T08:29:05;12.80;;;6.63;;
73557;SDS011;61829;53.286;10.434;2022-11-20T08:34:36;11.55;;;6.65;;
73557;SDS011;61829;53.286;10.434;2022-11-20T08:37:02;13.82;;;7.65;;
73557;SDS011;61829;53.286;10.434;2022-11-20T08:39:28;13.93;;;7.55;;
73557;SDS011;61829;53.286;10.434;2022-11-20T08:41:54;11.88;;;6.38;;
73557;SDS011;61829;53.286;10.434;2022-11-20T08:44:20;10.60;;;6.85;;
73557;SDS011;61829;53.286;10.434;2022-11-20T08:46:47;12.82;;;6.38;;
73557;SDS011;61829;53.286;10.434;2022-11-20T08:49:13;11.68;;;7.03;;
73557;SDS011;61829;53.286;10.434;2022-11-20T08:51:40;12.82;;;7.75;;
73557;SDS011;61829;53.286;10.434;2022-11-20T08:54:07;12.13;;;6.85;;
73557;SDS011;61829;53.286;10.434;2022-11-20T08:56:34;13.60;;;7.03;;
73557;SDS011;61829;53.286;10.434;2022-11-20T08:59:00;11.63;;;6.75;;
73557;SDS011;61829;53.286;10.434;2022-11-20T09:01:28;10.73;;;6.97;;
73557;SDS011;61829;53.286;10.434;2022-11-20T09:06:21;12.25;;;6.72;;
73557;SDS011;61829;53.286;10.434;2022-11-20T09:08:47;9.80;;;5.97;;
73557;SDS011;61829;53.286;10.434;2022-11-20T09:11:17;12.18;;;6.65;;
73557;SDS011;61829;53.286;10.434;2022-11-20T09:13:43;10.07;;;5.90;;
73557;SDS011;61829;53.286;10.434;2022-11-20T09:16:09;15.98;;;7.00;;
73557;SDS011;61829;53.286;10.434;2022-11-20T09:18:36;12.00;;;6.82;;
73557;SDS011;61829;53.286;10.434;2022-11-20T09:21:04;11.15;;;5.93;;
73557;SDS011;61829;53.286;10.434;2022-11-20T09:23:32;13.00;;;6.65;;
73557;SDS011;61829;53.286;10.434;2022-11-20T09:26:04;11.02;;;5.90;;
73557;SDS011;61829;53.286;10.434;2022-11-20T09:28:30;15.43;;;7.13;;
73557;SDS011;61829;53.286;10.434;2022-11-20T09:31:05;10.13;;;6.03;;
73557;SDS011;61829;53.286;10.434;2022-11-20T09:33:32;12.18;;;6.50;;
73557;SDS011;61829;53.286;10.434;2022-11-20T09:36:01;11.35;;;7.28;;
73557;SDS011;61829;53.286;10.434;2022-11-20T09:38:27;11.95;;;7.53;;
73557;SDS011;61829;53.286;10.434;2022-11-20T09:40:58;13.88;;;8.05;;
73557;SDS011;61829;53.286;10.434;2022-11-20T09:52:17;13.68;;;8.15;;
73557;SDS011;61829;53.286;10.434;2022-11-20T09:55:11;15.40;;;8.48;;
73557;SDS011;61829;53.286;10.434;2022-11-20T09:57:41;14.40;;;9.80;;
73557;SDS011;61829;53.286;10.434;2022-11-20T10:00:12;13.38;;;7.90;;
73557;SDS011;61829;53.286;10.434;2022-11-20T10:05:28;13.75;;;6.47;;
73557;SDS011;61829;53.286;10.434;2022-11-20T10:10:47;11.93;;;7.60;;
73557;SDS011;61829;53.286;10.434;2022-11-20T10:24:14;10.00;;;5.35;;
73557;SDS011;61829;53.286;10.434;2022-11-20T10:27:03;8.25;;;4.85;;
73557;SDS011;61829;53.286;10.434;2022-11-20T10:29:47;9.52;;;4.85;;
73557;SDS011;61829;53.286;10.434;2022-11-20T10:32:28;7.85;;;4.57;;
73557;SDS011;61829;53.286;10.434;2022-11-20T10:35:02;7.72;;;4.20;;
73557;SDS011;61829;53.286;10.434;2022-11-20T10:37:42;6.65;;;4.25;;
73557;SDS011;61829;53.286;10.434;2022-11-20T10:42:44;6.90;;;4.53;;
73557;SDS011;61829;53.286;10.434;2022-11-20T10:50:54;7.05;;;4.22;;
73557;SDS011;61829;53.286;10.434;2022-11-20T11:02:20;6.35;;;4.05;;
73557;SDS011;61829;53.286;10.434;2022-11-20T11:04:52;8.40;;;4.70;;
73557;SDS011;61829;53.286;10.434;2022-11-20T11:07:23;6.68;;;4.40;;
73557;SDS011;61829;53.286;10.434;2022-11-20T11:09:56;8.15;;;4.57;;
73557;SDS011;61829;53.286;10.434;2022-11-20T11:12:26;7.50;;;4.47;;
73557;SDS011;61829;53.286;10.434;2022-11-20T11:14:54;6.45;;;4.30;;
73557;SDS011;61829;53.286;10.434;2022-11-20T11:17:24;6.60;;;4.03;;
73557;SDS011;61829;53.286;10.434;2022-11-20T11:22:28;5.78;;;3.42;;
73557;SDS011;61829;53.286;10.434;2022-11-20T11:24:59;3.92;;;2.78;;
73557;SDS011;61829;53.286;10.434;2022-11-20T11:27:28;5.65;;;2.90;;
73557;SDS011;61829;53.286;10.434;2022-11-20T11:30:01;5.93;;;4.03;;
73557;SDS011;61829;53.286;10.434;2022-11-20T11:32:37;3.15;;;2.15;;
73557;SDS011;61829;53.286;10.434;2022-11-20T11:35:05;4.32;;;2.58;;
73557;SDS011;61829;53.286;10.434;2022-11-20T11:37:36;4.47;;;2.50;;
73557;SDS011;61829;53.286;10.434;2022-11-20T11:40:04;6.07;;;2.78;;
73557;SDS011;61829;53.286;10.434;2022-11-20T11:42:32;6.10;;;3.45;;
73557;SDS011;61829;53.286;10.434;2022-11-20T11:45:00;7.80;;;4.30;;
73557;SDS011;61829;53.286;10.434;2022-11-20T11:47:36;10.48;;;5.13;;
73557;SDS011;61829;53.286;10.434;2022-11-20T11:59:12;5.63;;;3.88;;
73557;SDS011;61829;53.286;10.434;2022-11-20T12:01:59;6.65;;;3.08;;
73557;SDS011;61829;53.286;10.434;2022-11-20T12:04:38;6.18;;;3.67;;
73557;SDS011;61829;53.286;10.434;2022-11-20T12:07:15;7.75;;;4.13;;
73557;SDS011;61829;53.286;10.434;2022-11-20T12:09:51;7.03;;;4.00;;
73557;SDS011;61829;53.286;10.434;2022-11-20T12:12:31;5.80;;;3.50;;
73557;SDS011;61829;53.286;10.434;2022-11-20T12:15:11;6.95;;;4.72;;
73557;SDS011;61829;53.286;10.434;2022-11-20T12:17:41;6.22;;;4.15;;
73557;SDS011;61829;53.286;10.434;2022-11-20T12:20:13;6.10;;;4.28;;
73557;SDS011;61829;53.286;10.434;2022-11-20T12:25:29;7.40;;;4.40;;
73557;SDS011;61829;53.286;10.434;2022-11-20T12:36:21;6.35;;;4.45;;
73557;SDS011;61829;53.286;10.434;2022-11-20T12:41:48;7.93;;;4.60;;
73557;SDS011;61829;53.286;10.434;2022-11-20T12:47:39;7.32;;;4.00;;
73557;SDS011;61829;53.286;10.434;2022-11-20T12:53:27;7.25;;;4.05;;
73557;SDS011;61829;53.286;10.434;2022-11-20T13:02:12;4.90;;;3.45;;
73557;SDS011;61829;53.286;10.434;2022-11-20T13:04:53;7.38;;;3.50;;
73557;SDS011;61829;53.286;10.434;2022-11-20T13:07:30;5.65;;;3.45;;
73557;SDS011;61829;53.286;10.434;2022-11-20T13:10:00;5.75;;;3.85;;
73557;SDS011;61829;53.286;10.434;2022-11-20T13:20:06;9.40;;;5.97;;
73557;SDS011;61829;53.286;10.434;2022-11-20T13:25:10;5.10;;;3.45;;
73557;SDS011;61829;53.286;10.434;2022-11-20T13:27:47;4.22;;;3.03;;
73557;SDS011;61829;53.286;10.434;2022-11-20T13:30:16;5.40;;;3.25;;
73557;SDS011;61829;53.286;10.434;2022-11-20T13:32:51;4.30;;;2.80;;
73557;SDS011;61829;53.286;10.434;2022-11-20T13:35:24;6.13;;;3.63;;
73557;SDS011;61829;53.286;10.434;2022-11-20T13:40:30;7.78;;;3.78;;
73557;SDS011;61829;53.286;10.434;2022-11-20T13:45:29;5.07;;;3.60;;
73557;SDS011;61829;53.286;10.434;2022-11-20T13:47:57;4.63;;;3.47;;
73557;SDS011;61829;53.286;10.434;2022-11-20T14:01:25;5.55;;;3.42;;
73557;SDS011;61829;53.286;10.434;2022-11-20T14:03:57;6.13;;;3.67;;
73557;SDS011;61829;53.286;10.434;2022-11-20T14:06:28;5.10;;;3.78;;
73557;SDS011;61829;53.286;10.434;2022-11-20T14:08:57;5.78;;;3.90;;
73557;SDS011;61829;53.286;10.434;2022-11-20T14:11:27;7.20;;;4.65;;
73557;SDS011;61829;53.286;10.434;2022-11-20T14:16:23;9.25;;;4.55;;
73557;SDS011;61829;53.286;10.434;2022-11-20T14:18:50;7.47;;;4.35;;
73557;SDS011;61829;53.286;10.434;2022-11-20T14:21:26;5.80;;;3.53;;
73557;SDS011;61829;53.286;10.434;2022-11-20T14:24:04;7.28;;;4.32;;
73557;SDS011;61829;53.286;10.434;2022-11-20T14:26:30;5.95;;;3.40;;
73557;SDS011;61829;53.286;10.434;2022-11-20T14:28:57;7.15;;;3.67;;
73557;SDS011;61829;53.286;10.434;2022-11-20T14:33:55;5.00;;;3.53;;
73557;SDS011;61829;53.286;10.434;2022-11-20T14:36:24;9.68;;;5.05;;
73557;SDS011;61829;53.286;10.434;2022-11-20T14:38:51;8.73;;;5.07;;
73557;SDS011;61829;53.286;10.434;2022-11-20T14:41:20;7.28;;;4.53;;
73557;SDS011;61829;53.286;10.434;2022-11-20T14:43:58;8.20;;;5.32;;
73557;SDS011;61829;53.286;10.434;2022-11-20T14:46:25;6.70;;;4.63;;
73557;SDS011;61829;53.286;10.434;2022-11-20T14:48:58;7.68;;;4.65;;
73557;SDS011;61829;53.286;10.434;2022-11-20T14:51:37;6.55;;;4.50;;
73557;SDS011;61829;53.286;10.434;2022-11-20T14:54:14;6.30;;;3.72;;
73557;SDS011;61829;53.286;10.434;2022-11-20T14:56:41;5.40;;;3.78;;
73557;SDS011;61829;53.286;10.434;2022-11-20T14:59:27;7.80;;;3.72;;
73557;SDS011;61829;53.286;10.434;2022-11-20T15:02:31;6.55;;;4.25;;
73557;SDS011;61829;53.286;10.434;2022-11-20T15:04:56;8.23;;;3.85;;
73557;SDS011;61829;53.286;10.434;2022-11-20T15:10:05;5.32;;;3.45;;
73557;SDS011;61829;53.286;10.434;2022-11-20T15:12:46;5.70;;;3.95;;
73557;SDS011;61829;53.286;10.434;2022-11-20T15:15:17;6.22;;;3.97;;
73557;SDS011;61829;53.286;10.434;2022-11-20T15:17:48;7.05;;;4.53;;
73557;SDS011;61829;53.286;10.434;2022-11-20T15:20:16;7.40;;;4.53;;
73557;SDS011;61829;53.286;10.434;2022-11-20T15:22:43;7.32;;;5.15;;
73557;SDS011;61829;53.286;10.434;2022-11-20T15:25:13;8.18;;;4.45;;
73557;SDS011;61829;53.286;10.434;2022-11-20T15:27:41;6.00;;;3.63;;
73557;SDS011;61829;53.286;10.434;2022-11-20T15:30:14;4.90;;;3.15;;
73557;SDS011;61829;53.286;10.434;2022-11-20T15:32:42;6.68;;;3.40;;
73557;SDS011;61829;53.286;10.434;2022-11-20T15:35:09;6.75;;;4.43;;
73557;SDS011;61829;53.286;10.434;2022-11-20T15:37:38;9.57;;;5.72;;
73557;SDS011;61829;53.286;10.434;2022-11-20T15:40:05;12.73;;;6.72;;
73557;SDS011;61829;53.286;10.434;2022-11-20T15:42:32;7.05;;;4.10;;
73557;SDS011;61829;53.286;10.434;2022-11-20T15:44:59;4.90;;;3.53;;
73557;SDS011;61829;53.286;10.434;2022-11-20T15:47:32;7.05;;;3.42;;
73557;SDS011;61829;53.286;10.434;2022-11-20T15:50:00;9.98;;;5.50;;
73557;SDS011;61829;53.286;10.434;2022-11-20T15:52:27;10.30;;;5.65;;
73557;SDS011;61829;53.286;10.434;2022-11-20T15:54:53;10.93;;;5.93;;
73557;SDS011;61829;53.286;10.434;2022-11-20T15:57:19;8.73;;;5.65;;
73557;SDS011;61829;53.286;10.434;2022-11-20T15:59:45;8.15;;;5.15;;
73557;SDS011;61829;53.286;10.434;2022-11-20T16:02:11;8.68;;;4.30;;
73557;SDS011;61829;53.286;10.434;2022-11-20T16:04:37;8.30;;;5.63;;
73557;SDS011;61829;53.286;10.434;2022-11-20T16:07:04;7.43;;;4.70;;
73557;SDS011;61829;53.286;10.434;2022-11-20T16:09:30;7.50;;;4.78;;
73557;SDS011;61829;53.286;10.434;2022-11-20T16:11:57;8.48;;;5.00;;
73557;SDS011;61829;53.286;10.434;2022-11-20T16:14:26;9.73;;;4.72;;
73557;SDS011;61829;53.286;10.434;2022-11-20T16:17:11;7.25;;;4.25;;
73557;SDS011;61829;53.286;10.434;2022-11-20T16:19:38;7.78;;;4.60;;
73557;SDS011;61829;53.286;10.434;2022-11-20T16:22:04;8.13;;;4.78;;
73557;SDS011;61829;53.286;10.434;2022-11-20T16:24:30;7.15;;;4.40;;
73557;SDS011;61829;53.286;10.434;2022-11-20T16:26:56;8.50;;;5.20;;
73557;SDS011;61829;53.286;10.434;2022-11-20T16:29:22;8.55;;;5.70;;
73557;SDS011;61829;53.286;10.434;2022-11-20T16:31:48;9.88;;;5.72;;
73557;SDS011;61829;53.286;10.434;2022-11-20T16:34:15;11.85;;;6.72;;
73557;SDS011;61829;53.286;10.434;2022-11-20T16:36:42;9.25;;;5.28;;
73557;SDS011;61829;53.286;10.434;2022-11-20T16:39:10;8.10;;;5.53;;
73557;SDS011;61829;53.286;10.434;2022-11-20T16:44:07;6.25;;;4.05;;
73557;SDS011;61829;53.286;10.434;2022-11-20T16:46:35;7.38;;;4.72;;
73557;SDS011;61829;53.286;10.434;2022-11-20T16:49:03;7.40;;;4.65;;
73557;SDS011;61829;53.286;10.434;2022-11-20T16:51:31;6.95;;;4.75;;
73557;SDS011;61829;53.286;10.434;2022-11-20T16:54:06;10.00;;;4.43;;
73557;SDS011;61829;53.286;10.434;2022-11-20T16:56:34;6.70;;;4.40;;
73557;SDS011;61829;53.286;10.434;2022-11-20T16:59:00;7.20;;;4.22;;
73557;SDS011;61829;53.286;10.434;2022-11-20T17:01:27;7.22;;;4.20;;
73557;SDS011;61829;53.286;10.434;2022-11-20T17:06:21;6.95;;;4.90;;
73557;SDS011;61829;53.286;10.434;2022-11-20T17:08:49;7.05;;;4.57;;
73557;SDS011;61829;53.286;10.434;2022-11-20T17:11:17;7.88;;;4.65;;